Time;durP1;ratioP1;P1;durP2;ratioP2;P2;SDS_P1;SDS_P2;PMS_P1;PMS_P2;Temp;Humidity;BMP_temperature;BMP_pressure;BME280_temperature;BME280_humidity;BME280_pressure;Samples;Min_cycle;Max_cycle;Signal;HPM_P1;HPM_P2
2024/01/23 00:02:21;;;;;;;16.45;1.98;;;8.60;61.30;;;;;;5001152;28;20034;-57
2024/01/23 00:04:46;;;;;;;14.73;2.05;;;8.70;55.20;;;;;;5001311;28;20178;-63
2024/01/23 00:07:12;;;;;;;13.07;1.75;;;8.70;52.70;;;;;;5000452;28;20414;-61
2024/01/23 00:09:41;;;;;;;15.68;1.77;;;8.70;49.80;;;;;;5000472;28;20035;-59
2024/01/23 00:12:07;;;;;;;13.93;1.95;;;8.70;41.00;;;;;;5000428;28;20310;-60
2024/01/23 00:14:33;;;;;;;10.50;1.73;;;8.70;40.60;;;;;;5001063;28;20061;-59
2024/01/23 00:16:59;;;;;;;10.57;2.13;;;8.70;38.90;;;;;;5000207;28;20069;-59
2024/01/23 00:19:25;;;;;;;13.20;2.33;;;8.70;38.50;;;;;;5000929;28;20030;-59
2024/01/23 00:21:51;;;;;;;17.13;2.55;;;8.70;32.70;;;;;;5000783;28;20034;-59
2024/01/23 00:24:17;;;;;;;13.27;1.52;;;8.60;36.00;;;;;;5000933;28;20026;-60
2024/01/23 00:26:43;;;;;;;11.70;1.45;;;8.70;33.80;;;;;;5000048;28;20030;-59
2024/01/23 00:29:08;;;;;;;13.70;1.88;;;8.70;29.10;;;;;;5000622;28;20030;-58
2024/01/23 00:31:35;;;;;;;13.27;2.25;;;8.70;23.40;;;;;;4999833;28;20107;-59
2024/01/23 00:34:01;;;;;;;11.60;2.10;;;8.60;28.40;;;;;;5000643;28;20057;-60
2024/01/23 00:36:27;;;;;;;13.02;1.83;;;8.60;27.80;;;;;;5000618;28;20027;-58
2024/01/23 00:38:52;;;;;;;8.93;1.63;;;8.70;26.00;;;;;;5000470;28;20045;-58
2024/01/23 00:41:18;;;;;;;11.77;1.63;;;8.70;20.00;;;;;;5000505;28;20030;-60
2024/01/23 00:43:44;;;;;;;11.02;1.55;;;8.70;19.50;;;;;;5000526;28;20045;-59
2024/01/23 00:46:10;;;;;;;13.02;1.50;;;8.70;24.60;;;;;;4999628;28;20037;-58
2024/01/23 00:48:35;;;;;;;15.52;1.98;;;8.60;26.30;;;;;;4999782;28;20038;-62
2024/01/23 00:51:01;;;;;;;10.60;1.73;;;8.60;29.70;;;;;;5000739;28;20100;-60
2024/01/23 00:53:27;;;;;;;12.00;1.90;;;8.60;26.40;;;;;;5000350;28;20330;-59
2024/01/23 00:55:53;;;;;;;14.90;2.08;;;8.60;27.60;;;;;;4999620;28;20302;-60
2024/01/23 00:58:19;;;;;;;10.07;2.40;;;8.60;29.00;;;;;;5000130;28;20417;-59
2024/01/23 01:00:44;;;;;;;14.77;2.47;;;8.50;29.30;;;;;;4999145;28;20026;-59
2024/01/23 01:03:11;;;;;;;9.65;2.17;;;8.60;25.90;;;;;;4999962;28;20027;-61
2024/01/23 01:05:37;;;;;;;14.15;2.28;;;8.70;24.80;;;;;;4999286;28;20027;-58
2024/01/23 01:08:04;;;;;;;13.80;1.90;;;8.70;21.80;;;;;;4999343;28;20041;-58
2024/01/23 01:10:30;;;;;;;19.13;2.65;;;8.60;28.20;;;;;;5015552;28;20259;-58
2024/01/23 01:12:55;;;;;;;15.95;2.08;;;8.50;32.80;;;;;;5000093;28;20038;-59
2024/01/23 01:15:22;;;;;;;13.73;2.47;;;8.50;38.20;;;;;;4999904;28;20276;-57
2024/01/23 01:17:48;;;;;;;12.02;1.90;;;8.50;40.90;;;;;;4999774;28;20038;-57
2024/01/23 01:20:14;;;;;;;12.82;2.50;;;8.50;38.30;;;;;;4999762;28;20026;-58
2024/01/23 01:22:39;;;;;;;15.13;2.33;;;8.50;44.40;;;;;;4999657;28;20045;-58
2024/01/23 01:25:05;;;;;;;17.30;2.42;;;8.50;39.40;;;;;;4999735;28;20398;-61
2024/01/23 01:27:31;;;;;;;14.95;2.25;;;8.50;44.00;;;;;;4998887;28;20037;-57
2024/01/23 01:29:57;;;;;;;18.10;2.30;;;8.50;40.00;;;;;;4999592;28;20027;-65
2024/01/23 01:32:23;;;;;;;10.75;1.98;;;8.50;45.40;;;;;;4999364;28;20073;-60
2024/01/23 01:34:48;;;;;;;13.65;2.20;;;8.50;43.50;;;;;;4999737;28;20440;-58
2024/01/23 01:37:14;;;;;;;14.25;2.20;;;8.40;53.90;;;;;;4998868;28;20042;-58
2024/01/23 01:39:40;;;;;;;16.73;2.33;;;8.40;56.30;;;;;;4998588;28;20125;-58
2024/01/23 01:42:06;;;;;;;21.67;2.28;;;8.30;59.80;;;;;;4999400;28;20347;-58
2024/01/23 01:44:33;;;;;;;16.70;2.15;;;8.40;59.50;;;;;;4999350;28;20034;-59
2024/01/23 01:46:59;;;;;;;19.63;2.30;;;8.50;52.20;;;;;;4982879;28;20038;-57
2024/01/23 01:49:26;;;;;;;15.07;2.05;;;8.50;52.60;;;;;;4999275;28;20026;-59
2024/01/23 01:51:52;;;;;;;17.77;2.40;;;8.40;54.00;;;;;;4999275;28;20125;-58
2024/01/23 01:54:20;;;;;;;10.23;2.10;;;8.30;63.30;;;;;;4999161;28;20121;-58
2024/01/23 01:56:46;;;;;;;14.52;2.40;;;8.20;70.50;;;;;;4999077;28;20121;-58
2024/01/23 01:59:12;;;;;;;18.17;2.63;;;8.20;74.00;;;;;;4999049;28;20034;-59
2024/01/23 02:01:39;;;;;;;13.88;2.13;;;8.30;68.70;;;;;;5014419;28;20042;-58
2024/01/23 02:04:05;;;;;;;10.25;2.00;;;8.30;68.80;;;;;;4998180;28;20026;-59
2024/01/23 02:06:32;;;;;;;13.50;1.88;;;8.30;69.60;;;;;;4998955;28;20037;-58
2024/01/23 02:08:58;;;;;;;15.07;2.20;;;8.30;63.10;;;;;;4998854;28;20038;-58
2024/01/23 02:11:24;;;;;;;22.17;2.53;;;8.30;63.60;;;;;;4997857;28;20175;-62
2024/01/23 02:13:50;;;;;;;16.15;2.70;;;8.40;57.30;;;;;;4998153;28;20377;-58
2024/01/23 02:16:18;;;;;;;20.20;2.20;;;8.40;52.10;;;;;;4981819;28;20132;-58
2024/01/23 02:18:44;;;;;;;14.50;2.20;;;8.40;53.70;;;;;;4998663;28;20057;-59
2024/01/23 02:21:10;;;;;;;18.50;2.40;;;8.30;56.00;;;;;;4998788;28;20030;-58
2024/01/23 02:23:36;;;;;;;21.25;2.25;;;8.20;62.00;;;;;;4998466;28;20037;-57
2024/01/23 02:26:02;;;;;;;15.98;2.45;;;8.10;65.00;;;;;;4998559;28;20030;-58
2024/01/23 02:28:28;;;;;;;14.68;2.50;;;8.20;66.70;;;;;;4998542;28;20153;-58
2024/01/23 02:30:54;;;;;;;12.52;2.40;;;8.20;60.70;;;;;;4998411;28;20032;-59
2024/01/23 02:33:20;;;;;;;14.20;2.05;;;8.20;58.30;;;;;;4998358;28;20035;-59
2024/01/23 02:35:46;;;;;;;12.18;1.90;;;8.20;56.50;;;;;;4997737;28;20034;-58
2024/01/23 02:38:12;;;;;;;13.38;2.78;;;8.30;46.50;;;;;;4998385;28;20409;-58
2024/01/23 02:40:37;;;;;;;14.77;2.17;;;8.20;51.70;;;;;;4998276;28;20030;-58
2024/01/23 02:43:03;;;;;;;11.43;1.80;;;8.00;54.50;;;;;;4998029;28;20043;-59
2024/01/23 02:45:29;;;;;;;15.65;2.50;;;8.00;57.20;;;;;;4997427;28;20414;-58
2024/01/23 02:47:55;;;;;;;11.52;2.03;;;8.00;58.60;;;;;;4998145;28;20055;-58
2024/01/23 02:50:21;;;;;;;18.35;2.17;;;8.10;51.30;;;;;;4998226;28;20130;-58
2024/01/23 02:52:48;;;;;;;10.65;2.00;;;8.10;46.70;;;;;;4998271;28;20030;-58
2024/01/23 02:55:14;;;;;;;11.13;1.80;;;8.00;52.00;;;;;;4998074;28;20060;-59
2024/01/23 02:57:40;;;;;;;11.38;2.20;;;8.10;44.00;;;;;;4997970;28;20398;-57
2024/01/23 03:00:08;;;;;;;14.27;2.20;;;8.10;36.40;;;;;;4998015;28;20053;-61
2024/01/23 03:02:34;;;;;;;8.18;1.75;;;7.90;43.90;;;;;;4997680;28;20038;-58
2024/01/23 03:05:00;;;;;;;14.70;2.00;;;7.90;43.00;;;;;;4997932;28;20089;-59
2024/01/23 03:07:26;;;;;;;9.63;2.13;;;7.90;39.10;;;;;;4997724;28;20030;-58
2024/01/23 03:09:52;;;;;;;12.77;2.00;;;8.00;30.40;;;;;;4997752;28;20034;-58
2024/01/23 03:12:21;;;;;;;13.00;2.03;;;7.90;36.00;;;;;;4997103;28;20039;-58
2024/01/23 03:14:49;;;;;;;12.90;2.10;;;7.90;37.80;;;;;;5013637;28;20034;-58
2024/01/23 03:17:15;;;;;;;15.63;2.55;;;7.80;35.20;;;;;;4997603;28;20034;-57
2024/01/23 03:19:42;;;;;;;10.15;1.70;;;7.70;43.70;;;;;;4997645;28;20045;-58
2024/01/23 03:22:09;;;;;;;10.18;1.90;;;7.70;43.80;;;;;;4997286;28;20125;-59
2024/01/23 03:24:38;;;;;;;9.60;1.77;;;7.70;47.10;;;;;;4997564;28;20263;-58
2024/01/23 03:27:06;;;;;;;12.25;1.83;;;7.70;49.10;;;;;;4997719;28;20026;-59
2024/01/23 03:29:43;;;;;;;14.40;1.77;;;7.70;45.80;;;;;;4997481;28;20034;-58
2024/01/23 03:32:10;;;;;;;16.30;2.30;;;7.80;39.70;;;;;;4997365;28;20054;-59
2024/01/23 03:34:37;;;;;;;13.10;1.90;;;7.70;42.50;;;;;;4997470;28;20041;-58
2024/01/23 03:37:03;;;;;;;9.50;2.00;;;7.60;48.20;;;;;;4997648;28;20061;-58
2024/01/23 03:39:32;;;;;;;14.02;1.70;;;7.60;50.50;;;;;;4996669;28;20038;-58
2024/01/23 03:41:58;;;;;;;10.63;1.73;;;7.60;52.00;;;;;;4996599;28;20049;-58
2024/01/23 03:44:25;;;;;;;11.20;2.22;;;7.60;52.90;;;;;;4997365;28;20398;-59
2024/01/23 03:46:51;;;;;;;10.40;1.67;;;7.60;55.00;;;;;;4997289;28;20042;-58
2024/01/23 03:49:18;;;;;;;14.05;3.03;;;7.50;58.60;;;;;;4997318;28;20049;-58
2024/01/23 03:51:44;;;;;;;16.65;2.35;;;7.40;64.80;;;;;;4997271;28;20030;-58
2024/01/23 03:54:10;;;;;;;14.07;1.80;;;7.40;71.00;;;;;;4996505;28;20057;-58
2024/01/23 03:56:36;;;;;;;13.35;1.77;;;7.30;76.70;;;;;;4996438;28;20030;-58
2024/01/23 03:59:02;;;;;;;16.33;2.03;;;7.20;82.10;;;;;;4996329;28;20049;-59
2024/01/23 04:01:28;;;;;;;16.25;1.90;;;7.20;84.40;;;;;;5012683;28;20043;-58
2024/01/23 04:03:53;;;;;;;14.00;2.00;;;7.40;75.00;;;;;;4996371;28;20034;-59
2024/01/23 04:06:19;;;;;;;10.13;1.90;;;7.50;67.10;;;;;;4997265;28;20034;-60
2024/01/23 04:08:45;;;;;;;8.85;1.90;;;7.50;67.40;;;;;;4997040;28;20026;-58
2024/01/23 04:11:11;;;;;;;13.65;2.15;;;7.50;68.80;;;;;;4997148;28;20050;-58
2024/01/23 04:13:37;;;;;;;14.68;2.40;;;7.40;72.90;;;;;;4996646;28;20318;-58
2024/01/23 04:16:05;;;;;;;9.23;2.00;;;7.30;83.50;;;;;;4996487;28;20088;-60
2024/01/23 04:18:31;;;;;;;11.40;2.20;;;7.30;88.70;;;;;;4997074;28;20112;-58
2024/01/23 04:20:58;;;;;;;18.38;2.38;;;7.20;89.30;;;;;;4996994;28;20037;-58
2024/01/23 04:23:24;;;;;;;15.90;2.42;;;7.30;86.60;;;;;;4997190;28;20026;-58
2024/01/23 04:25:49;;;;;;;12.07;2.58;;;7.40;80.20;;;;;;4996633;28;20081;-59
2024/01/23 04:28:15;;;;;;;16.08;2.40;;;7.30;82.90;;;;;;4997007;28;20058;-58
2024/01/23 04:30:42;;;;;;;20.50;2.42;;;7.40;81.70;;;;;;4996385;28;20109;-57
2024/01/23 04:33:08;;;;;;;13.77;2.40;;;7.20;86.80;;;;;;4996187;28;20046;-58
2024/01/23 04:35:34;;;;;;;18.00;2.63;;;7.10;92.50;;;;;;5000101;28;20049;-59
2024/01/23 04:38:00;;;;;;;15.77;2.78;;;7.10;94.40;;;;;;5000582;28;20042;-58
2024/01/23 04:40:26;;;;;;;14.18;2.38;;;7.10;95.00;;;;;;5000649;28;20030;-59
2024/01/23 04:42:52;;;;;;;14.00;2.08;;;7.10;95.00;;;;;;5000512;28;20048;-59
2024/01/23 04:45:18;;;;;;;14.88;2.70;;;7.10;94.60;;;;;;5000255;28;20106;-58
2024/01/23 04:47:43;;;;;;;15.68;2.13;;;7.10;93.80;;;;;;5000461;28;20085;-58
2024/01/23 04:50:10;;;;;;;9.80;1.83;;;7.00;97.60;;;;;;5000422;28;20042;-59
2024/01/23 04:52:35;;;;;;;16.52;2.00;;;7.00;99.10;;;;;;4999583;28;20034;-57
2024/01/23 04:55:02;;;;;;;14.15;1.63;;;7.00;99.90;;;;;;5000412;28;20038;-58
2024/01/23 04:57:31;;;;;;;16.15;2.10;;;6.90;99.90;;;;;;5000454;28;20404;-57
2024/01/23 04:59:58;;;;;;;11.45;1.70;;;6.80;99.90;;;;;;5000236;28;20031;-57
2024/01/23 05:02:24;;;;;;;12.48;1.75;;;6.80;99.90;;;;;;4999408;28;20054;-58
2024/01/23 05:04:49;;;;;;;11.43;2.05;;;6.80;99.90;;;;;;5000161;28;20430;-59
2024/01/23 05:07:15;;;;;;;14.10;2.45;;;6.80;99.90;;;;;;5000005;28;20370;-57
2024/01/23 05:09:41;;;;;;;16.13;2.10;;;6.80;99.90;;;;;;4999995;28;20038;-58
2024/01/23 05:12:07;;;;;;;11.40;1.92;;;6.70;99.90;;;;;;4999457;28;20102;-57
2024/01/23 05:14:33;;;;;;;12.10;1.90;;;6.60;99.90;;;;;;4999896;28;20034;-57
2024/01/23 05:16:58;;;;;;;13.70;2.00;;;6.50;99.90;;;;;;5000096;28;20128;-57
2024/01/23 05:19:24;;;;;;;10.57;1.98;;;6.50;99.90;;;;;;4999826;28;20302;-58
2024/01/23 05:21:50;;;;;;;14.70;2.50;;;6.50;99.90;;;;;;5000212;28;20045;-57
2024/01/23 05:24:17;;;;;;;9.90;2.08;;;6.60;99.90;;;;;;4999642;28;20034;-58
2024/01/23 05:26:43;;;;;;;13.23;1.52;;;6.50;99.90;;;;;;4999665;28;20033;-58
2024/01/23 05:29:09;;;;;;;18.27;2.10;;;6.40;99.90;;;;;;5000000;28;20026;-58
2024/01/23 05:31:34;;;;;;;13.48;2.10;;;6.30;99.90;;;;;;4999428;28;20080;-57
2024/01/23 05:34:00;;;;;;;17.52;2.33;;;6.30;99.90;;;;;;4998830;28;20066;-57
2024/01/23 05:36:26;;;;;;;11.43;2.58;;;6.30;99.90;;;;;;4999602;28;20314;-57
2024/01/23 05:38:51;;;;;;;16.50;2.25;;;6.30;99.90;;;;;;4999601;28;20038;-57
2024/01/23 05:41:17;;;;;;;11.27;2.25;;;6.30;99.90;;;;;;4999502;28;20069;-58
2024/01/23 05:43:43;;;;;;;12.77;2.30;;;6.30;99.90;;;;;;4999335;28;20038;-57
2024/01/23 05:46:09;;;;;;;14.35;1.95;;;6.40;99.90;;;;;;4998903;28;20030;-57
2024/01/23 05:48:35;;;;;;;10.63;2.03;;;6.50;99.90;;;;;;4999433;28;20054;-58
2024/01/23 05:51:00;;;;;;;18.55;2.20;;;6.50;99.90;;;;;;4999442;28;20097;-58
2024/01/23 05:53:26;;;;;;;15.77;2.20;;;6.60;99.90;;;;;;4999324;28;20065;-58
2024/01/23 05:55:53;;;;;;;15.10;2.40;;;6.60;99.90;;;;;;4999218;28;20030;-58
2024/01/23 05:58:18;;;;;;;15.13;2.35;;;6.50;99.90;;;;;;4999024;28;20034;-58
2024/01/23 06:00:44;;;;;;;16.92;2.67;;;6.60;99.90;;;;;;4999010;28;20106;-58
2024/01/23 06:03:10;;;;;;;13.13;1.98;;;6.50;99.90;;;;;;4998827;28;20045;-57
2024/01/23 06:05:36;;;;;;;15.20;2.55;;;6.50;99.90;;;;;;4998893;28;20132;-58
2024/01/23 06:08:03;;;;;;;11.57;2.03;;;6.40;99.90;;;;;;5014506;28;20023;-57
2024/01/23 06:10:29;;;;;;;15.35;2.33;;;6.40;99.90;;;;;;4998171;28;20043;-58
2024/01/23 06:12:54;;;;;;;13.52;2.40;;;6.50;99.90;;;;;;4981851;28;20184;-60
2024/01/23 06:15:20;;;;;;;12.05;2.28;;;6.50;99.90;;;;;;4998864;28;20121;-59
2024/01/23 06:17:46;;;;;;;9.85;1.90;;;6.50;99.90;;;;;;4999039;28;20035;-58
2024/01/23 06:20:15;;;;;;;10.00;2.13;;;6.60;99.90;;;;;;4998765;28;20035;-58
2024/01/23 06:22:41;;;;;;;18.80;2.33;;;6.50;99.90;;;;;;4997989;28;20030;-59
2024/01/23 06:25:14;;;;;;;14.07;2.67;;;6.60;99.90;;;;;;4998109;28;20401;-59
2024/01/23 06:27:41;;;;;;;19.98;2.33;;;6.60;99.90;;;;;;4998638;28;20049;-59
2024/01/23 06:30:13;;;;;;;12.98;2.20;;;6.60;99.90;;;;;;4998634;28;20101;-59
2024/01/23 06:32:40;;;;;;;9.25;2.22;;;6.50;99.90;;;;;;4998404;28;20082;-58
2024/01/23 06:35:07;;;;;;;18.48;2.80;;;6.40;99.90;;;;;;4981871;28;20121;-57
2024/01/23 06:37:34;;;;;;;14.18;2.33;;;6.30;99.90;;;;;;4998505;28;20088;-58
2024/01/23 06:40:00;;;;;;;12.20;2.00;;;6.20;99.90;;;;;;4998474;28;20275;-59
2024/01/23 06:42:25;;;;;;;12.43;2.75;;;6.20;99.90;;;;;;4998186;28;20117;-60
2024/01/23 06:44:51;;;;;;;15.25;2.00;;;6.10;99.90;;;;;;4997543;28;20105;-58
2024/01/23 06:47:18;;;;;;;13.60;2.58;;;6.10;99.90;;;;;;4998099;28;20026;-58
2024/01/23 06:49:44;;;;;;;12.45;2.45;;;6.00;99.90;;;;;;4998224;28;20050;-58
2024/01/23 06:52:10;;;;;;;14.15;2.08;;;6.00;99.90;;;;;;4997520;28;20078;-58
2024/01/23 06:54:35;;;;;;;15.70;2.15;;;6.00;99.90;;;;;;5013633;28;20303;-59
2024/01/23 06:57:01;;;;;;;11.57;2.10;;;6.00;99.90;;;;;;4997142;28;20275;-58
2024/01/23 06:59:28;;;;;;;19.20;2.90;;;6.00;99.90;;;;;;4996890;28;20112;-58
2024/01/23 07:01:54;;;;;;;12.98;2.20;;;5.90;99.90;;;;;;4998447;28;20418;-59
2024/01/23 07:04:19;;;;;;;11.45;2.50;;;6.10;99.90;;;;;;4997956;28;20034;-58
2024/01/23 07:06:45;;;;;;;11.68;2.08;;;6.10;99.90;;;;;;4997943;28;20034;-59
2024/01/23 07:09:11;;;;;;;14.25;1.88;;;6.00;99.90;;;;;;4997915;28;20031;-58
2024/01/23 07:11:41;;;;;;;14.90;2.20;;;5.80;99.90;;;;;;4997924;28;20108;-58
2024/01/23 07:14:08;;;;;;;18.48;2.75;;;5.70;99.90;;;;;;4998188;28;20445;-59
2024/01/23 07:16:34;;;;;;;18.08;2.30;;;5.70;99.90;;;;;;4997708;28;20038;-58
2024/01/23 07:19:00;;;;;;;20.30;2.35;;;5.70;99.90;;;;;;4997696;28;20042;-58
2024/01/23 07:21:26;;;;;;;16.25;2.78;;;5.60;99.90;;;;;;4997574;28;20026;-57
2024/01/23 07:23:52;;;;;;;16.38;2.47;;;5.60;99.90;;;;;;4996774;28;20430;-58
2024/01/23 07:26:18;;;;;;;14.35;2.05;;;5.60;99.90;;;;;;4997760;28;20104;-57
2024/01/23 07:28:44;;;;;;;16.05;2.33;;;5.60;99.90;;;;;;4997487;28;20033;-58
2024/01/23 07:31:11;;;;;;;11.15;2.15;;;6.00;99.90;;;;;;4997388;28;20046;-58
2024/01/23 07:33:37;;;;;;;19.65;3.25;;;5.80;99.90;;;;;;4997623;28;20074;-58
2024/01/23 07:36:04;;;;;;;20.35;3.40;;;5.80;99.90;;;;;;4997473;28;20029;-58
2024/01/23 07:38:29;;;;;;;15.82;2.42;;;5.60;99.90;;;;;;4997391;28;20050;-58
2024/01/23 07:40:55;;;;;;;13.98;2.85;;;5.60;99.90;;;;;;4997313;28;20294;-58
2024/01/23 07:43:27;;;;;;;19.15;2.58;;;5.60;99.90;;;;;;4997245;28;20038;-58
2024/01/23 07:45:53;;;;;;;18.00;2.63;;;5.60;99.90;;;;;;4997308;28;20034;-59
2024/01/23 07:48:19;;;;;;;17.10;2.60;;;5.50;99.90;;;;;;4997171;28;20301;-57
2024/01/23 07:50:45;;;;;;;15.13;2.97;;;5.50;99.90;;;;;;4997071;28;20041;-57
2024/01/23 07:53:11;;;;;;;17.23;2.70;;;5.50;99.90;;;;;;4996522;28;20042;-57
2024/01/23 07:55:37;;;;;;;13.68;2.38;;;5.60;99.90;;;;;;4997270;28;20397;-57
2024/01/23 07:58:03;;;;;;;13.95;2.22;;;5.60;99.90;;;;;;4997219;28;20026;-57
2024/01/23 08:00:28;;;;;;;18.05;2.63;;;5.60;99.90;;;;;;4997267;28;20128;-58
2024/01/23 08:02:54;;;;;;;10.95;2.50;;;5.70;99.90;;;;;;4996975;28;20074;-58
2024/01/23 08:05:20;;;;;;;11.88;2.38;;;5.70;99.90;;;;;;4997138;28;20038;-57
2024/01/23 08:07:48;;;;;;;18.13;3.03;;;5.70;99.90;;;;;;4997334;28;20031;-58
2024/01/23 08:10:14;;;;;;;15.60;2.65;;;5.70;99.90;;;;;;4999658;28;20464;-58
2024/01/23 08:12:40;;;;;;;13.10;2.63;;;5.80;99.90;;;;;;5001062;28;20393;-57
2024/01/23 08:15:07;;;;;;;14.05;2.33;;;5.80;99.90;;;;;;5001262;28;20031;-58
2024/01/23 08:17:33;;;;;;;20.20;2.78;;;5.90;99.90;;;;;;5001018;28;20270;-58
2024/01/23 08:19:59;;;;;;;19.42;2.72;;;6.00;99.90;;;;;;5000917;28;20034;-58
2024/01/23 08:22:24;;;;;;;14.55;2.70;;;6.00;99.90;;;;;;5000771;28;20034;-59
2024/01/23 08:24:51;;;;;;;15.52;2.22;;;6.00;99.90;;;;;;5000761;28;20066;-58
2024/01/23 08:27:17;;;;;;;14.80;2.53;;;6.00;99.90;;;;;;5000862;28;20030;-58
2024/01/23 08:29:44;;;;;;;16.17;2.33;;;6.10;99.90;;;;;;5000825;28;20034;-58
2024/01/23 08:32:10;;;;;;;19.33;3.20;;;6.10;99.90;;;;;;5000748;28;20054;-58
2024/01/23 08:34:36;;;;;;;13.27;2.22;;;6.10;99.90;;;;;;5000732;28;20417;-58
2024/01/23 08:37:02;;;;;;;17.52;2.75;;;6.10;99.90;;;;;;5000623;28;20034;-58
2024/01/23 08:39:29;;;;;;;17.95;2.80;;;6.10;99.90;;;;;;5000967;28;20345;-58
2024/01/23 08:41:54;;;;;;;15.07;2.38;;;6.10;99.90;;;;;;5000611;28;20038;-58
2024/01/23 08:44:21;;;;;;;21.42;2.90;;;6.20;99.90;;;;;;5000550;28;20038;-58
2024/01/23 08:46:47;;;;;;;20.00;2.63;;;6.10;99.90;;;;;;5000642;28;20109;-58
2024/01/23 08:49:13;;;;;;;16.27;3.15;;;6.10;99.90;;;;;;5000540;28;20097;-58
2024/01/23 08:51:38;;;;;;;20.00;3.00;;;6.20;99.90;;;;;;5000481;28;20035;-58
2024/01/23 08:54:04;;;;;;;24.00;2.90;;;6.20;99.90;;;;;;5000409;28;20027;-57
2024/01/23 08:56:30;;;;;;;14.38;2.92;;;6.20;99.90;;;;;;5000357;28;20121;-60
2024/01/23 08:58:56;;;;;;;20.23;2.80;;;6.20;99.90;;;;;;5000239;28;20436;-57
2024/01/23 09:01:22;;;;;;;15.98;2.90;;;6.20;99.90;;;;;;5000308;28;20030;-57
2024/01/23 09:03:48;;;;;;;16.33;3.03;;;6.20;99.90;;;;;;5000390;28;20058;-58
2024/01/23 09:06:14;;;;;;;21.00;2.60;;;6.30;99.90;;;;;;5000359;28;20406;-57
2024/01/23 09:08:43;;;;;;;17.20;2.65;;;6.30;99.90;;;;;;5000131;28;20659;-58
2024/01/23 09:11:08;;;;;;;18.73;2.83;;;6.40;99.90;;;;;;5000041;28;20368;-58
2024/01/23 09:13:34;;;;;;;19.73;3.13;;;6.50;99.90;;;;;;5000037;28;20062;-57
2024/01/23 09:16:01;;;;;;;17.77;2.88;;;6.60;99.90;;;;;;5000028;28;20034;-57
2024/01/23 09:18:29;;;;;;;18.05;2.72;;;6.60;99.90;;;;;;4999970;28;20033;-57
2024/01/23 09:20:56;;;;;;;10.45;2.40;;;6.70;99.90;;;;;;4999007;28;20384;-57
2024/01/23 09:23:22;;;;;;;18.08;2.75;;;6.70;99.90;;;;;;4999746;28;20287;-57
2024/01/23 09:25:49;;;;;;;20.05;3.08;;;6.70;99.90;;;;;;5000042;28;20027;-58
2024/01/23 09:28:15;;;;;;;18.88;3.42;;;6.80;99.90;;;;;;4999819;28;20035;-57
2024/01/23 09:30:41;;;;;;;17.73;2.17;;;6.90;99.90;;;;;;4999520;28;20045;-57
2024/01/23 09:33:07;;;;;;;12.95;2.08;;;7.00;99.90;;;;;;4999585;28;20568;-57
2024/01/23 09:35:33;;;;;;;17.63;2.70;;;7.00;99.90;;;;;;4999594;28;20061;-57
2024/01/23 09:37:59;;;;;;;21.27;2.60;;;7.10;99.90;;;;;;4999632;28;20046;-57
2024/01/23 09:40:25;;;;;;;29.35;3.85;;;7.10;99.90;;;;;;4999512;28;20322;-58
2024/01/23 09:42:55;;;;;;;19.10;3.10;;;7.10;99.90;;;;;;4999002;28;20039;-58
2024/01/23 09:45:27;;;;;;;17.75;2.97;;;7.20;99.90;;;;;;4998784;28;20119;-58
2024/01/23 09:47:53;;;;;;;18.38;3.58;;;7.30;99.90;;;;;;4999524;28;20037;-57
2024/01/23 09:50:19;;;;;;;16.60;2.95;;;7.40;99.90;;;;;;4999503;28;20027;-58
2024/01/23 09:52:46;;;;;;;26.00;3.05;;;7.60;99.90;;;;;;4999417;28;20321;-59
2024/01/23 09:55:12;;;;;;;20.20;2.60;;;7.60;99.90;;;;;;4999363;28;20027;-58
2024/01/23 09:57:39;;;;;;;21.88;3.13;;;7.80;99.90;;;;;;4999195;28;20053;-60
2024/01/23 10:00:12;;;;;;;15.50;2.63;;;7.70;99.90;;;;;;4999138;28;20030;-58
2024/01/23 10:02:44;;;;;;;20.40;3.08;;;7.70;99.90;;;;;;4998471;28;20276;-58
2024/01/23 10:05:12;;;;;;;14.05;2.17;;;7.80;99.90;;;;;;4999317;28;20298;-58
2024/01/23 10:07:39;;;;;;;18.77;2.60;;;7.80;99.90;;;;;;4999048;28;20026;-58
2024/01/23 10:10:13;;;;;;;21.70;2.78;;;7.80;99.90;;;;;;4999030;28;20022;-58
2024/01/23 10:12:41;;;;;;;18.63;2.63;;;7.90;99.90;;;;;;4998975;28;20030;-58
2024/01/23 10:15:10;;;;;;;15.48;2.35;;;8.00;99.90;;;;;;4998971;28;20041;-57
2024/01/23 10:17:36;;;;;;;18.58;3.00;;;8.00;99.90;;;;;;4998789;28;20031;-59
2024/01/23 10:20:01;;;;;;;18.55;3.05;;;8.30;99.90;;;;;;4998876;28;20042;-59
2024/01/23 10:22:27;;;;;;;21.05;3.30;;;8.70;99.90;;;;;;4998703;28;20073;-58
2024/01/23 10:24:53;;;;;;;19.45;3.33;;;8.70;99.90;;;;;;4998750;28;20037;-58
2024/01/23 10:27:19;;;;;;;25.73;3.25;;;8.90;99.90;;;;;;4998728;28;20318;-58
2024/01/23 10:29:45;;;;;;;16.10;2.95;;;8.80;99.90;;;;;;4998700;28;20027;-58
2024/01/23 10:32:11;;;;;;;18.42;2.40;;;8.50;99.90;;;;;;4998421;28;20146;-58
2024/01/23 10:34:36;;;;;;;22.42;3.30;;;8.40;99.90;;;;;;4998535;28;20026;-58
2024/01/23 10:37:02;;;;;;;19.83;2.83;;;8.40;99.90;;;;;;4998469;28;20030;-58
2024/01/23 10:39:29;;;;;;;23.15;3.55;;;8.40;99.90;;;;;;4998318;28;20433;-58
2024/01/23 10:41:56;;;;;;;12.52;2.80;;;8.50;99.90;;;;;;4998222;28;20053;-58
2024/01/23 10:44:25;;;;;;;27.50;3.08;;;8.50;99.90;;;;;;4998508;28;20440;-58
2024/01/23 10:46:55;;;;;;;17.27;3.03;;;8.50;99.90;;;;;;4998338;28;20026;-59
2024/01/23 10:49:22;;;;;;;18.60;3.47;;;8.50;99.90;;;;;;4998259;28;20026;-59
2024/01/23 10:51:51;;;;;;;21.38;3.55;;;8.60;99.90;;;;;;4998193;28;20030;-58
2024/01/23 10:54:31;;;;;;;16.90;2.95;;;8.70;99.90;;;;;;4998296;28;20042;-59
2024/01/23 10:56:59;;;;;;;23.50;3.63;;;8.70;99.90;;;;;;4997664;28;20053;-59
2024/01/23 10:59:29;;;;;;;22.00;3.33;;;8.70;99.90;;;;;;4998170;28;20034;-58
2024/01/23 11:02:25;;;;;;;21.63;3.75;;;8.60;99.90;;;;;;4997960;28;20022;-58
2024/01/23 11:04:52;;;;;;;17.83;3.78;;;8.50;99.90;;;;;;4997597;28;20034;-58
2024/01/23 11:07:52;;;;;;;27.63;4.25;;;8.60;99.90;;;;;;4997314;28;20088;-59
2024/01/23 11:10:33;;;;;;;25.25;3.83;;;8.70;99.90;;;;;;4981835;28;20042;-59
2024/01/23 11:13:30;;;;;;;24.67;3.63;;;8.90;99.90;;;;;;4997882;28;20034;-59
2024/01/23 11:15:55;;;;;;;23.73;3.88;;;9.00;99.90;;;;;;4997178;28;20038;-58
2024/01/23 11:18:28;;;;;;;30.15;5.22;;;9.20;99.90;;;;;;4997846;28;20287;-58
2024/01/23 11:21:08;;;;;;;23.20;5.00;;;9.30;99.90;;;;;;4997879;28;20034;-58
2024/01/23 11:23:42;;;;;;;22.20;3.55;;;9.40;99.90;;;;;;4997672;28;20065;-59
2024/01/23 11:26:22;;;;;;;24.85;3.95;;;9.50;99.90;;;;;;4997882;28;20034;-58
2024/01/23 11:28:59;;;;;;;23.17;3.75;;;9.30;99.90;;;;;;4997753;28;20050;-59
2024/01/23 11:31:28;;;;;;;27.35;4.45;;;9.30;99.90;;;;;;4997569;28;20381;-59
2024/01/23 11:34:29;;;;;;;28.38;3.97;;;9.30;99.90;;;;;;4997654;28;20382;-60
2024/01/23 11:36:55;;;;;;;25.25;4.68;;;9.30;99.90;;;;;;4996728;28;20283;-58
2024/01/23 11:39:23;;;;;;;21.60;3.88;;;9.30;99.90;;;;;;4997460;28;20093;-58
2024/01/23 11:41:50;;;;;;;23.08;4.18;;;9.20;99.90;;;;;;4997363;28;20030;-58
2024/01/23 11:44:16;;;;;;;25.40;3.85;;;9.20;99.90;;;;;;4996871;28;20045;-58
2024/01/23 11:46:47;;;;;;;21.60;3.70;;;9.10;99.90;;;;;;4996587;28;20165;-58
2024/01/23 11:49:13;;;;;;;20.98;3.72;;;9.20;99.90;;;;;;4997495;28;20302;-59
2024/01/23 11:51:39;;;;;;;22.10;3.67;;;9.10;99.90;;;;;;4997380;28;20042;-58
2024/01/23 11:54:12;;;;;;;26.98;4.35;;;9.10;99.90;;;;;;4997305;28;20034;-58
2024/01/23 11:56:39;;;;;;;25.58;4.10;;;9.10;99.90;;;;;;4997369;28;20070;-59
2024/01/23 11:59:05;;;;;;;23.55;3.72;;;9.10;99.90;;;;;;4996549;28;20030;-58
2024/01/23 12:01:34;;;;;;;23.50;3.50;;;9.10;99.90;;;;;;4997274;28;20153;-58
2024/01/23 12:04:01;;;;;;;24.00;3.90;;;9.10;99.90;;;;;;4996567;28;20086;-58
2024/01/23 12:06:27;;;;;;;17.35;3.83;;;9.10;99.90;;;;;;4996678;28;20027;-58
2024/01/23 12:08:53;;;;;;;28.35;4.00;;;9.10;99.90;;;;;;4997245;28;20097;-58
2024/01/23 12:11:19;;;;;;;27.33;4.22;;;9.20;99.90;;;;;;4997257;28;20026;-58
2024/01/23 12:13:49;;;;;;;23.20;4.05;;;9.30;99.90;;;;;;4997496;28;20294;-58
2024/01/23 12:16:16;;;;;;;22.65;3.75;;;9.40;99.90;;;;;;4997210;28;20037;-57
2024/01/23 12:18:42;;;;;;;19.88;4.10;;;9.50;99.90;;;;;;5012676;28;20121;-58
2024/01/23 12:21:09;;;;;;;27.25;4.25;;;9.70;99.90;;;;;;4996453;28;20077;-58
2024/01/23 12:23:35;;;;;;;20.63;3.42;;;9.60;99.90;;;;;;4996223;28;20057;-57
2024/01/23 12:26:01;;;;;;;32.42;4.07;;;9.50;99.90;;;;;;4997092;28;20035;-59
2024/01/23 12:28:30;;;;;;;22.67;4.22;;;9.50;99.90;;;;;;4997114;28;20354;-58
2024/01/23 12:30:56;;;;;;;24.13;3.20;;;9.50;99.90;;;;;;4996882;28;20114;-59
2024/01/23 12:33:23;;;;;;;20.40;3.95;;;9.60;99.90;;;;;;4997005;28;20035;-59
2024/01/23 12:35:49;;;;;;;32.03;4.47;;;9.50;99.90;;;;;;4996172;28;20046;-57
2024/01/23 12:38:15;;;;;;;19.65;3.67;;;9.40;99.90;;;;;;4997032;28;20034;-58
2024/01/23 12:40:42;;;;;;;25.80;3.88;;;9.30;99.90;;;;;;4997170;28;20169;-59
2024/01/23 12:43:09;;;;;;;25.33;4.20;;;9.30;99.90;;;;;;4996835;28;20283;-58
2024/01/23 12:45:35;;;;;;;20.60;3.78;;;9.30;99.90;;;;;;4996156;28;20045;-59
2024/01/23 12:48:01;;;;;;;24.27;3.90;;;9.30;99.90;;;;;;4996126;28;20038;-58